createdAt,value
2024-02-21T00:04:30.668Z,22.70
2024-02-21T00:09:33.632Z,22.80
2024-02-21T00:14:37.835Z,22.70
2024-02-21T00:19:41.077Z,22.70
2024-02-21T00:24:44.032Z,22.80
2024-02-21T00:29:48.236Z,22.80
2024-02-21T00:34:51.170Z,22.70
2024-02-21T00:39:56.000Z,22.60
2024-02-21T00:45:00.437Z,22.70
2024-02-21T00:50:04.383Z,22.70
2024-02-21T00:55:10.425Z,22.70
2024-02-21T01:00:15.867Z,22.60
2024-02-21T01:05:19.255Z,22.80
2024-02-21T01:10:22.459Z,22.70
2024-02-21T01:15:26.866Z,22.70
2024-02-21T01:20:29.818Z,22.70
2024-02-21T01:25:32.738Z,22.60
2024-02-21T01:30:37.097Z,22.60
2024-02-21T01:35:40.202Z,22.70
2024-02-21T01:40:43.314Z,22.60
2024-02-21T01:45:50.609Z,22.60
2024-02-21T01:50:54.018Z,22.60
2024-02-21T01:55:56.958Z,22.60
2024-02-21T02:01:01.679Z,22.70
2024-02-21T02:06:06.369Z,22.70
2024-02-21T02:11:09.410Z,22.60
2024-02-21T02:16:13.769Z,22.60
2024-02-21T02:21:26.364Z,22.60
2024-02-21T02:26:30.565Z,22.50
2024-02-21T02:31:33.536Z,22.60
2024-02-21T02:36:36.501Z,22.60
2024-02-21T02:41:40.713Z,22.60
2024-02-21T02:46:43.668Z,22.60
2024-02-21T02:51:46.586Z,22.50
2024-02-21T02:56:52.720Z,22.50
2024-02-21T03:01:55.650Z,22.50
2024-02-21T03:06:58.625Z,22.50
2024-02-21T03:12:04.728Z,22.50
2024-02-21T03:17:07.640Z,22.60
2024-02-21T03:22:10.520Z,22.60
2024-02-21T03:27:14.812Z,22.60
2024-02-21T03:32:17.770Z,22.50
2024-02-21T03:37:20.693Z,22.60
2024-02-21T03:42:24.994Z,22.50
2024-02-21T03:47:28.129Z,22.50
2024-02-21T03:52:31.085Z,22.50
2024-02-21T03:57:35.366Z,22.50
2024-02-21T04:02:38.245Z,22.50
2024-02-21T04:07:41.392Z,22.50
2024-02-21T04:12:45.677Z,22.50
2024-02-21T04:17:48.709Z,22.40
2024-02-21T04:22:51.865Z,22.50
2024-02-21T04:27:56.091Z,22.50
2024-02-21T04:32:58.992Z,22.40
2024-02-21T04:38:02.091Z,22.40
2024-02-21T04:43:06.473Z,22.40
2024-02-21T04:48:09.466Z,22.50
2024-02-21T04:53:12.368Z,22.40
2024-02-21T04:58:16.632Z,22.50
2024-02-21T05:03:19.560Z,22.40
2024-02-21T05:08:22.461Z,22.40
2024-02-21T05:13:27.016Z,22.40
2024-02-21T05:18:30.153Z,22.40
2024-02-21T05:23:33.236Z,22.40
2024-02-21T05:28:37.593Z,22.40
2024-02-21T05:33:40.584Z,22.40
2024-02-21T05:38:43.483Z,22.50
2024-02-21T05:43:47.724Z,22.60
2024-02-21T05:48:50.729Z,22.60
2024-02-21T05:53:53.706Z,22.80
2024-02-21T05:58:58.326Z,22.90
2024-02-21T06:04:01.396Z,23.00
2024-02-21T06:09:04.814Z,23.00
2024-02-21T06:14:09.060Z,23.00
2024-02-21T06:19:12.047Z,23.00
2024-02-21T06:24:14.946Z,23.00
2024-02-21T06:29:19.231Z,22.90
2024-02-21T06:34:22.700Z,22.90
2024-02-21T06:39:25.966Z,22.90
2024-02-21T06:44:30.673Z,22.90
2024-02-21T06:49:33.690Z,23.00
2024-02-21T06:54:36.640Z,23.10
2024-02-21T06:59:40.841Z,23.10
2024-02-21T07:04:44.898Z,23.10
2024-02-21T07:09:49.876Z,23.10
2024-02-21T07:14:54.090Z,23.10
2024-02-21T07:19:58.079Z,23.20
2024-02-21T07:25:03.696Z,23.10
2024-02-21T07:30:12.280Z,23.10
2024-02-21T07:35:16.588Z,23.20
2024-02-21T07:40:19.716Z,23.10
2024-02-21T07:45:25.162Z,23.20
2024-02-21T07:50:28.346Z,23.20
2024-02-21T07:55:31.384Z,23.20
2024-02-21T08:00:35.951Z,23.20
2024-02-21T08:05:38.875Z,23.20
2024-02-21T08:10:41.857Z,23.20
2024-02-21T08:15:46.228Z,23.20
2024-02-21T08:20:49.266Z,23.30
2024-02-21T08:25:52.192Z,23.30
2024-02-21T08:30:56.437Z,23.20
2024-02-21T08:35:59.413Z,23.40
2024-02-21T08:41:02.443Z,23.30
2024-02-21T08:46:07.525Z,23.30
2024-02-21T08:51:10.609Z,23.10
2024-02-21T08:56:14.004Z,23.20
2024-02-21T09:01:18.314Z,23.10
2024-02-21T09:06:21.963Z,23.40
2024-02-21T09:11:24.970Z,23.50
2024-02-21T09:16:29.277Z,23.70
2024-02-21T09:21:32.240Z,23.80
2024-02-21T09:26:35.582Z,23.70
2024-02-21T09:31:40.744Z,23.70
2024-02-21T09:36:44.668Z,23.70
2024-02-21T09:41:49.558Z,23.80
2024-02-21T09:46:58.311Z,23.90
2024-02-21T09:52:07.034Z,23.90
2024-02-21T09:57:10.268Z,24.00
2024-02-21T10:02:14.723Z,24.00
2024-02-21T10:07:17.771Z,23.90
2024-02-21T10:12:20.676Z,24.00
2024-02-21T10:17:24.979Z,24.10
2024-02-21T10:22:29.432Z,24.00
2024-02-21T10:27:32.974Z,24.00
2024-02-21T10:32:37.247Z,24.00
2024-02-21T10:37:40.234Z,23.90
2024-02-21T10:42:43.933Z,24.00
2024-02-21T10:47:52.396Z,24.10
2024-02-21T10:53:03.640Z,24.10
2024-02-21T10:58:06.808Z,24.10
2024-02-21T11:03:11.655Z,24.20
2024-02-21T11:08:15.200Z,24.10
2024-02-21T11:13:18.880Z,24.10
2024-02-21T11:18:29.743Z,23.90
2024-02-21T11:23:32.847Z,24.00
2024-02-21T11:28:37.443Z,24.00
2024-02-21T11:33:43.189Z,23.90
2024-02-21T11:38:46.596Z,23.80
2024-02-21T11:43:50.997Z,23.90
2024-02-21T11:48:55.377Z,23.90
2024-02-21T11:54:01.934Z,23.90
2024-02-21T11:59:07.748Z,23.90
2024-02-21T12:04:12.420Z,23.90
2024-02-21T12:09:16.505Z,23.90
2024-02-21T12:14:19.495Z,23.80
2024-02-21T12:19:24.113Z,23.70
2024-02-21T12:24:28.221Z,23.90
2024-02-21T12:29:31.393Z,23.90
2024-02-21T12:34:44.449Z,23.80
2024-02-21T12:39:56.174Z,23.80
2024-02-21T12:44:59.192Z,23.80
2024-02-21T12:50:04.878Z,24.10
2024-02-21T12:55:09.807Z,24.00
2024-02-21T13:00:13.804Z,24.10
2024-02-21T13:05:18.262Z,24.20
2024-02-21T13:10:21.279Z,24.10
2024-02-21T13:15:24.306Z,24.10
2024-02-21T13:20:29.874Z,24.20
2024-02-21T13:25:32.987Z,24.10
2024-02-21T13:30:35.950Z,24.20
2024-02-21T13:35:40.365Z,24.20
2024-02-21T13:40:44.047Z,24.10
2024-02-21T13:45:58.275Z,24.20
2024-02-21T13:51:03.402Z,24.30
2024-02-21T13:56:06.994Z,24.40
2024-02-21T14:01:10.793Z,24.20
2024-02-21T14:06:15.144Z,24.30
2024-02-21T14:11:18.147Z,24.30
2024-02-21T14:16:21.144Z,24.30
2024-02-21T14:21:25.485Z,24.20
2024-02-21T14:26:28.446Z,24.20
2024-02-21T14:31:31.833Z,24.30
2024-02-21T14:36:36.084Z,24.20
2024-02-21T14:41:40.778Z,24.20
2024-02-21T14:46:43.705Z,24.30
2024-02-21T14:51:47.968Z,24.20
2024-02-21T14:56:51.062Z,24.30
2024-02-21T15:01:53.960Z,24.30
2024-02-21T15:06:58.152Z,24.30
2024-02-21T15:12:01.102Z,24.30
2024-02-21T15:17:04.094Z,24.30
2024-02-21T15:22:08.348Z,24.20
2024-02-21T15:27:11.284Z,24.30
2024-02-21T15:32:14.354Z,24.10
2024-02-21T15:37:18.740Z,24.30
2024-02-21T15:42:22.125Z,24.40
2024-02-21T15:47:25.043Z,24.30
2024-02-21T15:52:29.384Z,24.30
2024-02-21T15:57:33.481Z,24.30
2024-02-21T16:02:36.375Z,24.10
2024-02-21T16:07:40.668Z,24.20
2024-02-21T16:12:43.586Z,24.40
2024-02-21T16:17:46.552Z,24.40
2024-02-21T16:22:50.879Z,24.30
2024-02-21T16:27:54.182Z,24.40
2024-02-21T16:32:57.422Z,24.30
2024-02-21T16:38:03.473Z,24.40
2024-02-21T16:43:06.929Z,24.40
2024-02-21T16:48:10.275Z,24.40
2024-02-21T16:53:15.447Z,24.40
2024-02-21T16:58:18.526Z,24.50
2024-02-21T17:03:22.440Z,24.60
2024-02-21T17:08:27.234Z,24.50
2024-02-21T17:13:30.151Z,24.30
2024-02-21T17:18:33.176Z,24.30
2024-02-21T17:23:37.597Z,24.10
2024-02-21T17:28:40.516Z,24.10
2024-02-21T17:33:43.586Z,24.10
2024-02-21T17:38:49.453Z,24.00
2024-02-21T17:43:53.001Z,24.10
2024-02-21T17:48:56.052Z,24.00
2024-02-21T17:54:00.414Z,24.00
2024-02-21T17:59:03.724Z,24.00
2024-02-21T18:04:07.066Z,23.90
2024-02-21T18:09:11.389Z,23.80
2024-02-21T18:14:14.348Z,23.80
2024-02-21T18:19:20.597Z,23.80
2024-02-21T18:24:25.050Z,23.60
2024-02-21T18:29:37.885Z,23.60
2024-02-21T18:34:42.914Z,23.60
2024-02-21T18:39:47.716Z,23.50
2024-02-21T18:44:51.428Z,23.50
2024-02-21T18:49:54.519Z,23.50
2024-02-21T18:54:59.529Z,23.40
2024-02-21T19:00:08.013Z,23.40
2024-02-21T19:05:11.207Z,23.40
2024-02-21T19:10:15.897Z,23.30
2024-02-21T19:15:18.830Z,23.30
2024-02-21T19:20:21.782Z,23.30
2024-02-21T19:25:26.888Z,23.20
2024-02-21T19:30:31.239Z,23.30
2024-02-21T19:35:34.349Z,23.30
2024-02-21T19:40:38.615Z,23.30
2024-02-21T19:45:41.615Z,23.20
2024-02-21T19:50:44.618Z,23.20
2024-02-21T19:55:48.977Z,23.20
2024-02-21T20:00:52.140Z,23.20
2024-02-21T20:05:55.215Z,23.10
2024-02-21T20:10:59.808Z,23.10
2024-02-21T20:16:03.454Z,23.10
2024-02-21T20:21:07.112Z,23.10
2024-02-21T20:26:11.378Z,23.10
2024-02-21T20:31:20.559Z,23.00
2024-02-21T20:36:23.450Z,23.00
2024-02-21T20:41:27.736Z,23.10
2024-02-21T20:46:30.704Z,23.00
2024-02-21T20:51:33.639Z,23.00
2024-02-21T20:56:38.136Z,23.00
2024-02-21T21:01:47.009Z,22.90
2024-02-21T21:06:54.102Z,22.90
2024-02-21T21:11:58.508Z,22.90
2024-02-21T21:17:05.043Z,22.90
2024-02-21T21:22:08.568Z,22.90
2024-02-21T21:27:14.794Z,22.90
2024-02-21T21:32:17.817Z,22.80
2024-02-21T21:37:21.717Z,22.80
2024-02-21T21:42:26.168Z,22.70
2024-02-21T21:47:29.115Z,22.80
2024-02-21T21:52:32.624Z,22.60
2024-02-21T21:57:36.950Z,22.70
2024-02-21T22:02:40.208Z,22.70
2024-02-21T22:07:43.240Z,22.70
2024-02-21T22:12:47.529Z,22.70
2024-02-21T22:17:50.505Z,22.60
2024-02-21T22:22:53.802Z,22.70
2024-02-21T22:27:58.034Z,22.60
2024-02-21T22:33:01.091Z,22.50
2024-02-21T22:38:04.824Z,22.50
2024-02-21T22:43:09.879Z,22.40
2024-02-21T22:48:12.847Z,22.40
2024-02-21T22:53:15.835Z,22.50
2024-02-21T22:58:22.830Z,22.40
2024-02-21T23:03:25.882Z,22.40
2024-02-21T23:08:28.967Z,22.40
2024-02-21T23:13:33.760Z,22.40
2024-02-21T23:18:37.949Z,22.40
2024-02-21T23:23:40.906Z,22.30
2024-02-21T23:28:45.464Z,22.40
2024-02-21T23:33:48.534Z,22.40
2024-02-21T23:38:51.591Z,22.30
2024-02-21T23:43:59.057Z,22.30
2024-02-21T23:49:03.440Z,22.30
2024-02-21T23:54:06.437Z,22.30
2024-02-21T23:59:10.741Z,22.20
